createdAt,value
2022-11-23T00:01:29.784Z,14.00
2022-11-23T00:03:59.028Z,13.96
2022-11-23T00:06:26.133Z,13.95
2022-11-23T00:08:53.960Z,14.00
2022-11-23T00:11:21.887Z,14.03
2022-11-23T00:13:49.245Z,13.92
2022-11-23T00:16:24.212Z,13.91
2022-11-23T00:18:56.047Z,13.92
2022-11-23T00:21:23.893Z,13.98
2022-11-23T00:23:50.836Z,14.01
2022-11-23T00:26:18.603Z,14.04
2022-11-23T00:28:46.061Z,14.07
2022-11-23T00:31:18.673Z,14.02
2022-11-23T00:33:53.442Z,14.05
2022-11-23T00:36:21.303Z,14.06
2022-11-23T00:38:49.490Z,14.09
2022-11-23T00:41:22.950Z,13.98
2022-11-23T00:43:49.999Z,13.97
2022-11-23T00:46:17.824Z,14.07
2022-11-23T00:48:46.391Z,14.00
2022-11-23T00:51:16.396Z,14.05
2022-11-23T00:53:43.457Z,14.08
2022-11-23T00:56:11.780Z,14.08
2022-11-23T00:58:41.496Z,14.10
2022-11-23T01:01:13.998Z,13.98
2022-11-23T01:03:42.915Z,14.03
2022-11-23T01:06:15.349Z,13.99
2022-11-23T01:08:42.584Z,14.03
2022-11-23T01:11:12.355Z,14.03
2022-11-23T01:13:41.065Z,14.01
2022-11-23T01:16:22.437Z,14.05
2022-11-23T01:18:58.179Z,14.04
2022-11-23T01:21:26.659Z,14.05
2022-11-23T01:23:53.647Z,14.07
2022-11-23T01:26:20.805Z,14.08
2022-11-23T01:28:47.375Z,14.02
2022-11-23T01:31:19.370Z,14.05
2022-11-23T01:33:46.963Z,14.07
2022-11-23T01:36:19.884Z,14.01
2022-11-23T01:38:47.921Z,14.01
2022-11-23T01:41:20.721Z,13.94
2022-11-23T01:43:48.097Z,13.92
2022-11-23T01:46:14.863Z,13.90
2022-11-23T01:48:51.153Z,13.96
2022-11-23T01:51:28.509Z,13.94
2022-11-23T01:54:00.327Z,13.88
2022-11-23T01:56:32.674Z,13.89
2022-11-23T01:59:04.971Z,13.85
2022-11-23T02:01:32.092Z,13.92
2022-11-23T02:04:01.276Z,13.99
2022-11-23T02:06:29.192Z,13.96
2022-11-23T02:08:56.325Z,13.93
2022-11-23T02:11:23.187Z,13.94
2022-11-23T02:13:51.224Z,13.80
2022-11-23T02:16:19.254Z,13.88
2022-11-23T02:18:49.951Z,13.93
2022-11-23T02:21:18.740Z,14.00
2022-11-23T02:24:20.992Z,13.92
2022-11-23T02:26:47.729Z,13.93
2022-11-23T02:29:20.823Z,13.90
2022-11-23T02:31:47.441Z,13.98
2022-11-23T02:34:14.842Z,13.96
2022-11-23T02:36:51.703Z,13.96
2022-11-23T02:39:27.722Z,13.98
2022-11-23T02:41:55.156Z,13.96
2022-11-23T02:44:37.972Z,13.94
2022-11-23T02:47:06.819Z,14.02
2022-11-23T02:49:33.809Z,14.04
2022-11-23T02:52:01.585Z,14.05
2022-11-23T02:54:28.991Z,14.04
2022-11-23T02:56:56.960Z,14.04
2022-11-23T02:59:23.855Z,14.06
2022-11-23T03:01:52.461Z,14.13
2022-11-23T03:04:25.921Z,14.06
2022-11-23T03:06:54.179Z,13.87
2022-11-23T03:09:20.855Z,13.88
2022-11-23T03:11:47.489Z,13.94
2022-11-23T03:14:14.498Z,13.83
2022-11-23T03:16:49.841Z,13.81
2022-11-23T03:19:18.575Z,13.84
2022-11-23T03:21:45.208Z,13.83
2022-11-23T03:24:11.881Z,13.89
2022-11-23T03:26:38.698Z,13.91
2022-11-23T03:29:09.736Z,13.83
2022-11-23T03:31:38.921Z,13.85
2022-11-23T03:34:10.648Z,13.86
2022-11-23T03:36:38.527Z,13.85
2022-11-23T03:39:05.299Z,13.73
2022-11-23T03:41:57.288Z,13.85
2022-11-23T03:44:30.032Z,13.75
2022-11-23T03:46:56.887Z,13.83
2022-11-23T03:49:24.484Z,13.85
2022-11-23T03:51:52.148Z,13.90
2022-11-23T03:54:18.869Z,13.94
2022-11-23T03:56:45.723Z,13.97
2022-11-23T03:59:12.516Z,14.00
2022-11-23T04:01:39.247Z,14.03
2022-11-23T04:04:09.764Z,14.04
2022-11-23T04:06:53.786Z,14.05
2022-11-23T04:09:24.445Z,14.09
2022-11-23T04:12:20.275Z,14.11
2022-11-23T04:14:46.899Z,14.13
2022-11-23T04:17:13.637Z,14.14
2022-11-23T04:19:40.456Z,14.17
2022-11-23T04:22:08.088Z,14.14
2022-11-23T04:24:39.793Z,14.16
2022-11-23T04:27:08.053Z,14.20
2022-11-23T04:29:35.308Z,14.18
2022-11-23T04:32:05.014Z,14.26
2022-11-23T04:34:32.103Z,14.25
2022-11-23T04:37:01.260Z,14.26
2022-11-23T04:39:34.132Z,14.31
2022-11-23T04:42:39.592Z,14.37
2022-11-23T04:45:07.076Z,14.40
2022-11-23T04:47:33.795Z,14.36
2022-11-23T04:50:05.120Z,14.43
2022-11-23T04:52:32.053Z,14.46
2022-11-23T04:54:58.735Z,14.46
2022-11-23T04:57:25.553Z,14.47
2022-11-23T04:59:52.600Z,14.45
2022-11-23T05:02:22.535Z,14.49
2022-11-23T05:04:54.501Z,14.55
2022-11-23T05:07:26.066Z,14.58
2022-11-23T05:09:57.206Z,14.58
2022-11-23T05:12:23.892Z,14.51
2022-11-23T05:14:51.188Z,14.39
2022-11-23T05:17:26.219Z,14.48
2022-11-23T05:19:55.774Z,14.50
2022-11-23T05:22:23.044Z,14.55
2022-11-23T05:24:49.739Z,14.58
2022-11-23T05:27:20.020Z,14.59
2022-11-23T05:29:46.892Z,14.58
2022-11-23T05:32:14.448Z,14.60
2022-11-23T05:34:42.135Z,14.64
2022-11-23T05:37:10.760Z,14.59
2022-11-23T05:39:45.916Z,14.54
2022-11-23T05:42:13.770Z,14.46
2022-11-23T05:44:42.297Z,14.30
2022-11-23T05:47:16.279Z,14.21
2022-11-23T05:49:42.994Z,14.29
2022-11-23T05:52:10.918Z,14.24
2022-11-23T05:54:39.459Z,14.21
2022-11-23T05:57:10.445Z,14.18
2022-11-23T05:59:41.481Z,14.15
2022-11-23T06:02:11.823Z,14.20
2022-11-23T06:04:38.542Z,14.21
2022-11-23T06:07:09.211Z,14.17
2022-11-23T06:09:51.173Z,14.26
2022-11-23T06:12:17.907Z,14.24
2022-11-23T06:14:44.859Z,14.18
2022-11-23T06:17:14.768Z,14.07
2022-11-23T06:19:44.655Z,14.22
2022-11-23T06:22:12.577Z,14.18
2022-11-23T06:24:47.966Z,14.22
2022-11-23T06:27:33.190Z,14.25
2022-11-23T06:30:03.347Z,14.32
2022-11-23T06:32:31.721Z,14.26
2022-11-23T06:35:01.210Z,14.25
2022-11-23T06:37:31.381Z,14.31
2022-11-23T06:39:58.108Z,14.25
2022-11-23T06:42:41.059Z,14.27
2022-11-23T06:45:21.319Z,14.13
2022-11-23T06:47:53.972Z,14.16
2022-11-23T06:50:21.063Z,14.16
2022-11-23T06:52:48.732Z,14.12
2022-11-23T06:55:17.238Z,14.15
2022-11-23T06:57:44.045Z,14.08
2022-11-23T07:00:12.922Z,14.03
2022-11-23T07:02:39.584Z,14.02
2022-11-23T07:05:06.958Z,14.04
2022-11-23T07:07:35.540Z,14.06
2022-11-23T07:10:10.138Z,14.02
2022-11-23T07:12:44.398Z,14.06
2022-11-23T07:15:13.809Z,14.08
2022-11-23T07:17:42.008Z,14.08
2022-11-23T07:20:11.971Z,14.04
2022-11-23T07:22:39.578Z,14.05
2022-11-23T07:25:07.895Z,14.05
2022-11-23T07:27:34.508Z,14.01
2022-11-23T07:30:02.894Z,14.01
2022-11-23T07:32:30.345Z,14.06
2022-11-23T07:34:57.119Z,14.13
2022-11-23T07:37:24.932Z,14.15
2022-11-23T07:39:57.785Z,14.17
2022-11-23T07:42:40.017Z,14.24
2022-11-23T07:45:12.378Z,14.33
2022-11-23T07:47:43.796Z,14.45
2022-11-23T07:50:12.488Z,14.52
2022-11-23T07:52:40.484Z,14.63
2022-11-23T07:55:07.569Z,14.74
2022-11-23T07:57:34.182Z,14.85
2022-11-23T08:00:00.784Z,14.90
2022-11-23T08:02:27.499Z,14.95
2022-11-23T08:04:55.484Z,14.95
2022-11-23T08:07:22.149Z,15.01
2022-11-23T08:09:48.842Z,15.02
2022-11-23T08:12:15.447Z,15.08
2022-11-23T08:14:42.060Z,15.14
2022-11-23T08:17:08.949Z,15.29
2022-11-23T08:19:35.609Z,15.41
2022-11-23T08:22:02.228Z,15.39
2022-11-23T08:24:28.838Z,15.55
2022-11-23T08:26:56.387Z,15.61
2022-11-23T08:29:23.112Z,15.80
2022-11-23T08:31:49.774Z,15.90
2022-11-23T08:34:17.943Z,15.99
2022-11-23T08:36:45.099Z,16.06
2022-11-23T08:39:12.469Z,16.14
2022-11-23T08:41:39.080Z,16.20
2022-11-23T08:44:05.966Z,16.29
2022-11-23T08:46:32.629Z,16.38
2022-11-23T08:48:59.302Z,16.47
2022-11-23T08:51:25.928Z,16.59
2022-11-23T08:53:52.709Z,16.71
2022-11-23T08:56:19.395Z,16.78
2022-11-23T08:58:46.533Z,16.93
2022-11-23T09:01:16.617Z,16.92
2022-11-23T09:03:44.251Z,17.11
2022-11-23T09:06:11.649Z,17.25
2022-11-23T09:08:38.830Z,17.26
2022-11-23T09:11:09.889Z,17.36
2022-11-23T09:13:37.496Z,17.52
2022-11-23T09:16:05.680Z,17.58
2022-11-23T09:18:33.339Z,17.69
2022-11-23T09:21:05.338Z,17.80
2022-11-23T09:23:31.875Z,17.83
2022-11-23T09:26:02.809Z,17.88
2022-11-23T09:28:30.273Z,17.87
2022-11-23T09:30:57.565Z,17.98
2022-11-23T09:33:25.564Z,18.11
2022-11-23T09:36:00.104Z,18.17
2022-11-23T09:38:51.637Z,18.24
2022-11-23T09:41:23.069Z,18.30
2022-11-23T09:44:16.892Z,18.36
2022-11-23T09:47:13.944Z,18.40
2022-11-23T09:49:59.189Z,18.42
2022-11-23T09:52:26.066Z,18.47
2022-11-23T09:55:00.327Z,18.58
2022-11-23T09:57:31.937Z,18.70
2022-11-23T10:00:06.114Z,18.77
2022-11-23T10:02:39.596Z,18.92
2022-11-23T10:05:07.446Z,19.01
2022-11-23T10:07:44.394Z,19.11
2022-11-23T10:10:30.811Z,19.23
2022-11-23T10:13:29.651Z,19.38
2022-11-23T10:16:28.878Z,19.44
2022-11-23T10:18:58.368Z,19.60
2022-11-23T10:21:38.173Z,19.74
2022-11-23T10:24:28.558Z,19.90
2022-11-23T10:26:55.278Z,19.91
2022-11-23T10:29:54.086Z,19.86
2022-11-23T10:32:30.988Z,19.81
2022-11-23T10:35:12.465Z,19.85
2022-11-23T10:37:42.269Z,19.85
2022-11-23T10:40:18.828Z,19.86
2022-11-23T10:42:50.209Z,19.89
2022-11-23T10:45:23.423Z,19.95
2022-11-23T10:47:55.319Z,19.92
2022-11-23T10:50:27.058Z,19.84
2022-11-23T10:53:13.832Z,19.85
2022-11-23T10:55:55.004Z,19.82
2022-11-23T10:58:43.991Z,19.84
2022-11-23T11:01:16.716Z,19.84
2022-11-23T11:03:43.491Z,19.87
2022-11-23T11:06:11.415Z,19.90
2022-11-23T11:09:17.895Z,19.96
2022-11-23T11:11:52.233Z,19.98
2022-11-23T11:14:23.474Z,20.01
2022-11-23T11:16:59.217Z,20.03
2022-11-23T11:19:30.419Z,20.05
2022-11-23T11:21:59.141Z,20.07
2022-11-23T11:24:34.230Z,20.10
2022-11-23T11:27:12.546Z,20.07
2022-11-23T11:29:51.057Z,20.06
2022-11-23T11:32:27.000Z,20.05
2022-11-23T11:35:00.908Z,20.01
2022-11-23T11:37:44.539Z,19.98
2022-11-23T11:40:30.016Z,19.95
2022-11-23T11:43:05.990Z,19.94
2022-11-23T11:45:37.957Z,19.91
2022-11-23T11:48:04.618Z,19.92
2022-11-23T11:50:36.611Z,19.86
2022-11-23T11:53:05.687Z,19.90
2022-11-23T11:55:53.268Z,19.87
2022-11-23T11:58:22.728Z,19.94
2022-11-23T12:00:50.742Z,19.95
2022-11-23T12:03:38.202Z,20.04
2022-11-23T12:06:13.692Z,20.19
2022-11-23T12:09:03.167Z,20.37
2022-11-23T12:11:29.786Z,20.47
2022-11-23T12:14:02.852Z,20.64
2022-11-23T12:16:38.239Z,20.73
2022-11-23T12:19:21.235Z,20.85
2022-11-23T12:22:25.004Z,20.88
2022-11-23T12:25:11.271Z,20.99
2022-11-23T12:27:48.567Z,21.05
2022-11-23T12:30:21.845Z,21.09
2022-11-23T12:33:00.607Z,21.11
2022-11-23T12:35:46.420Z,21.15
2022-11-23T12:38:48.128Z,21.22
2022-11-23T12:41:23.891Z,21.26
2022-11-23T12:44:27.960Z,21.32
2022-11-23T12:46:54.567Z,21.31
2022-11-23T12:49:39.359Z,21.37
2022-11-23T12:52:24.910Z,21.37
2022-11-23T12:55:01.461Z,21.38
2022-11-23T12:57:35.903Z,21.36
2022-11-23T13:00:07.208Z,21.46
2022-11-23T13:02:42.892Z,21.52
2022-11-23T13:06:00.313Z,21.56
2022-11-23T13:08:49.876Z,21.62
2022-11-23T13:11:35.200Z,21.72
2022-11-23T13:14:01.890Z,21.67
2022-11-23T13:16:46.868Z,21.77
2022-11-23T13:19:33.882Z,21.84
2022-11-23T13:22:02.082Z,21.90
2022-11-23T13:24:28.619Z,21.80
2022-11-23T13:27:13.504Z,21.87
2022-11-23T13:29:49.301Z,21.88
2022-11-23T13:32:46.076Z,21.85
2022-11-23T13:35:21.614Z,21.86
2022-11-23T13:37:57.303Z,21.63
2022-11-23T13:40:24.995Z,21.38
2022-11-23T13:42:53.047Z,21.26
2022-11-23T13:45:19.604Z,21.04
2022-11-23T13:48:34.178Z,20.97
2022-11-23T13:51:01.612Z,20.80
2022-11-23T13:53:32.300Z,20.72
2022-11-23T13:56:24.904Z,20.58
2022-11-23T13:59:19.435Z,20.57
2022-11-23T14:02:08.071Z,20.56
2022-11-23T14:04:40.758Z,20.55
2022-11-23T14:07:29.999Z,20.49
2022-11-23T14:10:08.425Z,20.44
2022-11-23T14:13:05.738Z,20.41
2022-11-23T14:15:35.746Z,20.28
2022-11-23T14:18:25.282Z,20.10
2022-11-23T14:21:13.252Z,20.05
2022-11-23T14:24:15.568Z,20.02
2022-11-23T14:27:39.018Z,20.04
2022-11-23T14:30:05.673Z,19.98
2022-11-23T14:32:51.086Z,19.86
2022-11-23T14:35:33.818Z,19.85
2022-11-23T14:38:34.353Z,19.76
2022-11-23T14:41:14.953Z,19.57
2022-11-23T14:43:42.994Z,19.42
2022-11-23T14:46:21.391Z,19.43
2022-11-23T14:48:49.534Z,19.40
2022-11-23T14:51:18.248Z,19.43
2022-11-23T14:53:51.916Z,19.47
2022-11-23T14:56:23.033Z,19.45
2022-11-23T14:58:50.875Z,19.45
2022-11-23T15:01:21.664Z,19.37
2022-11-23T15:03:59.582Z,19.30
2022-11-23T15:06:33.167Z,19.20
2022-11-23T15:09:16.261Z,19.25
2022-11-23T15:11:43.022Z,19.19
2022-11-23T15:14:21.244Z,19.17
2022-11-23T15:16:49.356Z,19.11
2022-11-23T15:19:28.838Z,19.00
2022-11-23T15:21:56.990Z,18.93
2022-11-23T15:24:26.018Z,18.88
2022-11-23T15:26:53.568Z,18.89
2022-11-23T15:29:32.109Z,18.88
2022-11-23T15:32:28.796Z,18.84
2022-11-23T15:34:47.596Z,18.80
2022-11-23T15:37:14.720Z,18.75
2022-11-23T15:39:42.192Z,18.74
2022-11-23T15:42:15.593Z,18.83
2022-11-23T15:44:44.975Z,18.84
2022-11-23T15:47:30.993Z,18.87
2022-11-23T15:50:01.912Z,18.86
2022-11-23T15:52:38.248Z,18.79
2022-11-23T15:55:09.659Z,18.76
2022-11-23T15:57:38.658Z,18.75
2022-11-23T16:00:06.264Z,18.77
2022-11-23T16:02:38.920Z,18.72
2022-11-23T16:05:16.868Z,18.70
2022-11-23T16:08:00.880Z,18.63
2022-11-23T16:10:32.625Z,18.60
2022-11-23T16:13:33.975Z,18.49
2022-11-23T16:16:02.077Z,18.36
2022-11-23T16:18:31.461Z,18.28
2022-11-23T16:21:04.923Z,18.23
2022-11-23T16:23:54.323Z,18.13
2022-11-23T16:26:29.750Z,18.00
2022-11-23T16:28:58.602Z,17.99
2022-11-23T16:31:38.406Z,17.97
2022-11-23T16:34:17.560Z,17.96
2022-11-23T16:36:44.242Z,17.93
2022-11-23T16:39:11.433Z,17.92
2022-11-23T16:41:38.171Z,17.80
2022-11-23T16:44:05.471Z,17.83
2022-11-23T16:46:32.487Z,17.80
2022-11-23T16:49:00.212Z,17.85
2022-11-23T16:51:26.919Z,17.87
2022-11-23T16:56:42.501Z,17.81
2022-11-23T16:59:18.491Z,17.83
2022-11-23T17:01:55.421Z,17.82
2022-11-23T17:04:24.346Z,17.84
2022-11-23T17:06:51.088Z,17.81
2022-11-23T17:09:17.660Z,17.86
2022-11-23T17:11:47.804Z,17.84
2022-11-23T17:14:18.777Z,17.90
2022-11-23T17:16:46.966Z,17.88
2022-11-23T17:19:16.363Z,17.82
2022-11-23T17:21:43.582Z,17.86
2022-11-23T17:24:11.117Z,17.83
2022-11-23T17:26:40.277Z,17.77
2022-11-23T17:29:13.390Z,17.84
2022-11-23T17:31:40.457Z,17.82
2022-11-23T17:34:06.994Z,17.80
2022-11-23T17:36:33.660Z,17.83
2022-11-23T17:39:00.438Z,17.81
2022-11-23T17:41:27.261Z,17.82
2022-11-23T17:43:55.017Z,17.80
2022-11-23T17:46:26.501Z,17.82
2022-11-23T17:48:58.295Z,17.78
2022-11-23T17:51:25.632Z,17.78
2022-11-23T17:53:52.312Z,17.77
2022-11-23T17:56:21.390Z,17.77
2022-11-23T17:58:48.771Z,17.75
2022-11-23T18:01:17.793Z,17.76
2022-11-23T18:03:45.669Z,17.69
2022-11-23T18:06:21.516Z,17.70
2022-11-23T18:08:49.820Z,17.66
2022-11-23T18:11:17.699Z,17.68
2022-11-23T18:13:44.845Z,17.68
2022-11-23T18:16:11.508Z,17.64
2022-11-23T18:18:38.625Z,17.68
2022-11-23T18:21:06.381Z,17.67
2022-11-23T18:23:33.491Z,17.66
2022-11-23T18:26:02.302Z,17.68
2022-11-23T18:28:29.495Z,17.59
2022-11-23T18:30:56.466Z,17.59
2022-11-23T18:33:24.418Z,17.53
2022-11-23T18:35:51.364Z,17.54
2022-11-23T18:38:18.059Z,17.54
2022-11-23T18:40:44.740Z,17.54
2022-11-23T18:43:11.402Z,17.50
2022-11-23T18:45:38.091Z,17.42
2022-11-23T18:48:05.189Z,17.46
2022-11-23T18:50:31.912Z,17.50
2022-11-23T18:52:58.572Z,17.48
2022-11-23T18:55:25.231Z,17.52
2022-11-23T18:57:55.197Z,17.54
2022-11-23T19:00:22.798Z,17.56
2022-11-23T19:02:54.177Z,17.58
2022-11-23T19:05:21.997Z,17.50
2022-11-23T19:07:48.712Z,17.44
2022-11-23T19:10:15.833Z,17.49
2022-11-23T19:12:43.660Z,17.49
2022-11-23T19:15:11.589Z,17.52
2022-11-23T19:17:38.700Z,17.45
2022-11-23T19:20:08.331Z,17.40
2022-11-23T19:22:36.177Z,17.41
2022-11-23T19:25:02.884Z,17.38
2022-11-23T19:27:29.585Z,17.33
2022-11-23T19:29:56.223Z,17.23
2022-11-23T19:32:22.947Z,17.23
2022-11-23T19:34:49.631Z,17.24
2022-11-23T19:37:16.309Z,17.18
2022-11-23T19:39:42.936Z,17.16
2022-11-23T19:42:09.630Z,17.16
2022-11-23T19:44:36.282Z,17.16
2022-11-23T19:47:05.185Z,17.06
2022-11-23T19:49:34.197Z,17.03
2022-11-23T19:52:01.888Z,16.96
2022-11-23T19:54:28.525Z,16.82
2022-11-23T19:56:55.168Z,16.74
2022-11-23T19:59:21.842Z,16.68
2022-11-23T20:01:48.531Z,16.74
2022-11-23T20:04:15.235Z,16.78
2022-11-23T20:06:42.714Z,16.76
2022-11-23T20:09:12.386Z,16.73
2022-11-23T20:11:40.783Z,16.76
2022-11-23T20:14:07.949Z,16.78
2022-11-23T20:16:34.655Z,16.78
2022-11-23T20:19:05.722Z,16.77
2022-11-23T20:21:33.440Z,16.69
2022-11-23T20:24:05.990Z,16.70
2022-11-23T20:26:36.413Z,16.49
2022-11-23T20:29:05.117Z,16.53
2022-11-23T20:31:32.785Z,16.56
2022-11-23T20:33:59.872Z,16.48
2022-11-23T20:36:29.361Z,16.44
2022-11-23T20:38:56.641Z,16.45
2022-11-23T20:41:32.077Z,16.45
2022-11-23T20:44:07.379Z,16.45
2022-11-23T20:49:20.918Z,16.36
2022-11-23T20:51:47.747Z,16.24
2022-11-23T20:54:14.440Z,16.26
2022-11-23T20:56:41.137Z,16.30
2022-11-23T20:59:07.765Z,16.08
2022-11-23T21:01:34.668Z,16.12
2022-11-23T21:04:01.443Z,16.07
2022-11-23T21:06:28.559Z,16.03
2022-11-23T21:08:56.055Z,16.12
2022-11-23T21:11:45.517Z,16.07
2022-11-23T21:14:18.649Z,15.99
2022-11-23T21:16:58.402Z,16.01
2022-11-23T21:19:31.106Z,16.03
2022-11-23T21:21:59.570Z,15.97
2022-11-23T21:24:26.491Z,16.05
2022-11-23T21:26:53.368Z,16.04
2022-11-23T21:29:21.575Z,16.05
2022-11-23T21:31:49.208Z,16.05
2022-11-23T21:34:27.715Z,16.10
2022-11-23T21:36:56.100Z,16.07
2022-11-23T21:39:23.223Z,15.93
2022-11-23T21:41:51.452Z,16.02
2022-11-23T21:44:18.621Z,15.91
2022-11-23T21:46:45.522Z,15.97
2022-11-23T21:49:12.934Z,15.93
2022-11-23T21:51:39.672Z,15.91
2022-11-23T21:54:09.816Z,15.91
2022-11-23T21:56:36.518Z,15.96
2022-11-23T21:59:03.171Z,15.87
2022-11-23T22:01:32.828Z,15.94
2022-11-23T22:04:10.667Z,15.97
2022-11-23T22:06:38.473Z,15.98
2022-11-23T22:09:07.514Z,15.96
2022-11-23T22:11:35.938Z,15.90
2022-11-23T22:14:05.780Z,15.90
2022-11-23T22:16:34.779Z,15.86
2022-11-23T22:19:02.158Z,15.88
2022-11-23T22:21:33.575Z,15.81
2022-11-23T22:24:00.240Z,15.86
2022-11-23T22:26:27.839Z,15.88
2022-11-23T22:28:55.706Z,15.91
2022-11-23T22:31:25.596Z,15.85
2022-11-23T22:33:53.536Z,15.86
2022-11-23T22:36:23.174Z,15.94
2022-11-23T22:39:02.128Z,15.94
2022-11-23T22:41:30.661Z,15.87
2022-11-23T22:43:57.428Z,15.81
2022-11-23T22:46:25.312Z,15.89
2022-11-23T22:48:53.028Z,15.85
2022-11-23T22:51:23.402Z,15.90
2022-11-23T22:54:00.722Z,15.95
2022-11-23T22:56:28.866Z,15.95
2022-11-23T22:58:56.178Z,15.94
2022-11-23T23:01:29.069Z,16.00
2022-11-23T23:03:57.880Z,15.93
2022-11-23T23:06:26.503Z,15.93
2022-11-23T23:08:58.490Z,15.76
2022-11-23T23:11:26.974Z,15.62
2022-11-23T23:13:53.964Z,15.57
2022-11-23T23:16:21.160Z,15.74
2022-11-23T23:18:48.452Z,15.70
2022-11-23T23:21:18.452Z,15.69
2022-11-23T23:23:47.868Z,15.66
2022-11-23T23:26:16.650Z,15.63
2022-11-23T23:28:46.549Z,15.75
2022-11-23T23:31:35.104Z,15.82
2022-11-23T23:34:02.405Z,15.85
2022-11-23T23:36:29.952Z,15.91
2022-11-23T23:38:57.853Z,15.92
2022-11-23T23:41:24.523Z,15.86
2022-11-23T23:43:51.221Z,15.87
2022-11-23T23:46:18.265Z,15.89
2022-11-23T23:48:45.453Z,15.96
2022-11-23T23:51:17.631Z,15.93
2022-11-23T23:53:45.388Z,15.94
2022-11-23T23:56:15.507Z,15.93
2022-11-23T23:58:42.538Z,15.98
